createdAt,value
2023-10-15T00:00:26.379Z,100734.34
2023-10-15T00:02:53.592Z,100733.63
2023-10-15T00:05:22.774Z,100729.91
2023-10-15T00:07:50.756Z,100736.22
2023-10-15T00:10:19.967Z,100745.22
2023-10-15T00:12:48.235Z,100742.50
2023-10-15T00:15:16.807Z,100739.81
2023-10-15T00:17:44.061Z,100746.13
2023-10-15T00:20:20.958Z,100742.66
2023-10-15T00:22:48.655Z,100740.66
2023-10-15T00:25:15.789Z,100734.38
2023-10-15T00:27:43.544Z,100745.84
2023-10-15T00:30:20.469Z,100753.09
2023-10-15T00:32:47.932Z,100755.91
2023-10-15T00:35:15.558Z,100757.22
2023-10-15T00:37:42.333Z,100743.34
2023-10-15T00:40:17.455Z,100747.47
2023-10-15T00:42:46.026Z,100761.41
2023-10-15T00:45:16.010Z,100760.72
2023-10-15T00:47:43.937Z,100757.88
2023-10-15T00:50:10.867Z,100757.16
2023-10-15T00:52:43.544Z,100745.66
2023-10-15T00:55:18.135Z,100751.25
2023-10-15T00:57:49.057Z,100765.75
2023-10-15T01:00:34.743Z,100776.72
2023-10-15T01:03:07.536Z,100783.44
2023-10-15T01:05:46.029Z,100772.44
2023-10-15T01:08:17.510Z,100785.94
2023-10-15T01:10:44.724Z,100797.72
2023-10-15T01:13:22.463Z,100814.06
2023-10-15T01:15:54.084Z,100809.84
2023-10-15T01:18:20.423Z,100809.03
2023-10-15T01:20:46.917Z,100806.50
2023-10-15T01:23:33.208Z,100810.72
2023-10-15T01:26:01.025Z,100781.44
2023-10-15T01:28:40.227Z,100766.78
2023-10-15T01:31:07.362Z,100760.59
2023-10-15T01:33:47.343Z,100753.53
2023-10-15T01:36:19.335Z,100746.75
2023-10-15T01:38:45.745Z,100741.78
2023-10-15T01:41:20.431Z,100743.56
2023-10-15T01:43:51.772Z,100748.38
2023-10-15T01:46:37.023Z,100747.25
2023-10-15T01:49:07.988Z,100761.09
2023-10-15T01:51:40.414Z,100773.53
2023-10-15T01:54:10.537Z,100769.41
2023-10-15T01:56:46.138Z,100793.16
2023-10-15T01:59:12.873Z,100795.00
2023-10-15T02:01:42.344Z,100811.25
2023-10-15T02:04:28.003Z,100815.03
2023-10-15T02:06:54.769Z,100815.53
2023-10-15T02:09:24.375Z,100818.69
2023-10-15T02:11:55.155Z,100819.91
2023-10-15T02:14:28.449Z,100816.75
2023-10-15T02:16:55.348Z,100807.13
2023-10-15T02:19:42.498Z,100800.94
2023-10-15T02:22:13.910Z,100774.56
2023-10-15T02:24:48.439Z,100766.59
2023-10-15T02:27:26.719Z,100783.34
2023-10-15T02:29:53.422Z,100775.75
2023-10-15T02:32:26.987Z,100760.34
2023-10-15T02:34:55.088Z,100762.25
2023-10-15T02:37:25.119Z,100760.41
2023-10-15T02:39:51.796Z,100766.06
2023-10-15T02:42:23.121Z,100774.47
2023-10-15T02:44:52.478Z,100783.19
2023-10-15T02:47:42.668Z,100785.50
2023-10-15T02:50:14.724Z,100787.53
2023-10-15T02:52:47.815Z,100791.66
2023-10-15T02:55:17.500Z,100784.66
2023-10-15T02:57:45.047Z,100790.78
2023-10-15T03:00:32.075Z,100795.13
2023-10-15T03:02:59.414Z,100822.44
2023-10-15T03:05:31.667Z,100812.88
2023-10-15T03:08:01.237Z,100839.97
2023-10-15T03:10:45.945Z,100841.94
2023-10-15T03:13:15.375Z,100819.41
2023-10-15T03:15:49.989Z,100818.59
2023-10-15T03:18:23.106Z,100816.47
2023-10-15T03:20:50.967Z,100815.13
2023-10-15T03:23:18.375Z,100801.03
2023-10-15T03:25:44.903Z,100800.72
2023-10-15T03:28:13.727Z,100814.56
2023-10-15T03:30:45.571Z,100806.03
2023-10-15T03:33:14.996Z,100818.94
2023-10-15T03:35:46.686Z,100802.72
2023-10-15T03:38:16.512Z,100820.09
2023-10-15T03:40:51.114Z,100828.81
2023-10-15T03:43:21.611Z,100841.00
2023-10-15T03:45:54.911Z,100849.66
2023-10-15T03:48:23.380Z,100831.97
2023-10-15T03:50:56.438Z,100825.78
2023-10-15T03:53:29.545Z,100809.25
2023-10-15T03:55:57.703Z,100812.22
2023-10-15T03:58:24.707Z,100806.63
2023-10-15T04:01:03.490Z,100806.22
2023-10-15T04:03:29.985Z,100827.00
2023-10-15T04:06:02.495Z,100830.41
2023-10-15T04:08:32.108Z,100814.16
2023-10-15T04:10:59.561Z,100806.16
2023-10-15T04:13:28.985Z,100804.06
2023-10-15T04:15:56.625Z,100797.38
2023-10-15T04:18:26.556Z,100796.66
2023-10-15T04:20:54.537Z,100818.22
2023-10-15T04:23:33.032Z,100829.47
2023-10-15T04:26:02.199Z,100839.63
2023-10-15T04:28:29.576Z,100834.91
2023-10-15T04:30:57.319Z,100810.47
2023-10-15T04:33:27.654Z,100792.91
2023-10-15T04:35:54.167Z,100803.13
2023-10-15T04:38:23.442Z,100827.16
2023-10-15T04:40:59.053Z,100847.09
2023-10-15T04:43:29.045Z,100854.88
2023-10-15T04:46:03.663Z,100824.94
2023-10-15T04:48:33.557Z,100820.09
2023-10-15T04:51:13.174Z,100807.94
2023-10-15T04:53:46.084Z,100808.22
2023-10-15T04:56:13.766Z,100806.00
2023-10-15T04:58:40.574Z,100817.84
2023-10-15T05:01:08.404Z,100822.25
2023-10-15T05:03:36.012Z,100822.59
2023-10-15T05:06:03.731Z,100828.53
2023-10-15T05:08:30.233Z,100811.91
2023-10-15T05:10:57.043Z,100824.25
2023-10-15T05:13:25.881Z,100818.13
2023-10-15T05:15:52.784Z,100806.69
2023-10-15T05:18:20.360Z,100800.34
2023-10-15T05:20:51.586Z,100806.75
2023-10-15T05:23:19.224Z,100806.50
2023-10-15T05:25:45.667Z,100804.03
2023-10-15T05:28:15.689Z,100799.50
2023-10-15T05:30:42.918Z,100804.09
2023-10-15T05:33:09.492Z,100799.06
2023-10-15T05:35:35.953Z,100802.03
2023-10-15T05:38:02.378Z,100810.34
2023-10-15T05:40:30.577Z,100815.28
2023-10-15T05:42:56.977Z,100820.13
2023-10-15T05:45:25.725Z,100824.03
2023-10-15T05:47:52.202Z,100817.06
2023-10-15T05:50:18.926Z,100826.47
2023-10-15T05:52:46.678Z,100825.22
2023-10-15T05:55:13.402Z,100831.47
2023-10-15T05:57:39.762Z,100824.28
2023-10-15T06:00:25.333Z,100840.47
2023-10-15T06:02:52.048Z,100838.69
2023-10-15T06:05:18.547Z,100839.31
2023-10-15T06:07:45.603Z,100838.22
2023-10-15T06:10:15.353Z,100839.38
2023-10-15T06:12:42.771Z,100845.44
2023-10-15T06:15:10.586Z,100854.56
2023-10-15T06:17:37.111Z,100858.91
2023-10-15T06:20:16.076Z,100854.41
2023-10-15T06:22:47.809Z,100855.38
2023-10-15T06:25:15.365Z,100863.72
2023-10-15T06:27:42.150Z,100876.44
2023-10-15T06:30:15.664Z,100872.28
2023-10-15T06:32:45.999Z,100880.97
2023-10-15T06:35:19.172Z,100876.69
2023-10-15T06:37:56.610Z,100884.63
2023-10-15T06:40:24.334Z,100884.38
2023-10-15T06:42:52.781Z,100887.06
2023-10-15T06:45:22.825Z,100894.78
2023-10-15T06:47:53.398Z,100889.97
2023-10-15T06:50:24.747Z,100892.31
2023-10-15T06:52:53.710Z,100895.50
2023-10-15T06:55:23.413Z,100912.59
2023-10-15T06:57:51.031Z,100901.47
2023-10-15T07:00:24.235Z,100905.00
2023-10-15T07:02:55.075Z,100900.00
2023-10-15T07:05:24.968Z,100904.53
2023-10-15T07:07:51.785Z,100913.88
2023-10-15T07:10:18.607Z,100915.69
2023-10-15T07:12:51.808Z,100910.69
2023-10-15T07:15:21.572Z,100914.41
2023-10-15T07:17:50.582Z,100916.56
2023-10-15T07:20:22.365Z,100920.41
2023-10-15T07:22:50.400Z,100921.56
2023-10-15T07:25:18.311Z,100930.16
2023-10-15T07:27:49.824Z,100922.84
2023-10-15T07:30:18.161Z,100925.28
2023-10-15T07:32:45.937Z,100928.38
2023-10-15T07:35:14.835Z,100922.84
2023-10-15T07:37:45.723Z,100932.94
2023-10-15T07:40:18.164Z,100932.22
2023-10-15T07:42:45.998Z,100936.13
2023-10-15T07:45:13.294Z,100946.13
2023-10-15T07:47:39.996Z,100943.56
2023-10-15T07:50:08.865Z,100941.66
2023-10-15T07:52:36.136Z,100953.97
2023-10-15T07:55:02.886Z,100950.50
2023-10-15T07:57:29.292Z,100950.63
2023-10-15T07:59:58.782Z,100958.50
2023-10-15T08:02:28.239Z,100953.53
2023-10-15T08:04:58.404Z,100967.84
2023-10-15T08:07:25.149Z,100964.38
2023-10-15T08:09:51.510Z,100974.34
2023-10-15T08:12:18.085Z,100971.88
2023-10-15T08:14:46.124Z,100973.69
2023-10-15T08:17:14.913Z,100969.31
2023-10-15T08:19:41.491Z,100991.00
2023-10-15T08:22:09.872Z,100981.78
2023-10-15T08:24:39.233Z,100985.78
2023-10-15T08:27:07.042Z,100998.16
2023-10-15T08:29:33.415Z,100999.25
2023-10-15T08:32:02.730Z,100997.91
2023-10-15T08:34:29.446Z,100995.53
2023-10-15T08:36:55.806Z,100997.72
2023-10-15T08:39:24.923Z,101000.53
2023-10-15T08:41:52.970Z,101006.78
2023-10-15T08:44:21.513Z,100999.91
2023-10-15T08:46:50.873Z,101013.22
2023-10-15T08:49:17.876Z,101025.34
2023-10-15T08:51:44.416Z,101022.81
2023-10-15T08:54:13.155Z,101019.09
2023-10-15T08:56:44.649Z,101033.75
2023-10-15T08:59:11.855Z,101031.03
2023-10-15T09:01:38.866Z,101026.13
2023-10-15T09:04:05.806Z,101021.78
2023-10-15T09:06:32.574Z,101039.66
2023-10-15T09:09:01.076Z,101040.19
2023-10-15T09:11:28.721Z,101030.03
2023-10-15T09:13:55.435Z,101028.66
2023-10-15T09:16:22.654Z,101038.63
2023-10-15T09:18:51.319Z,101028.13
2023-10-15T09:21:26.415Z,101037.19
2023-10-15T09:23:53.826Z,101031.53
2023-10-15T09:26:21.221Z,101033.34
2023-10-15T09:28:47.646Z,101044.22
2023-10-15T09:31:14.125Z,101046.47
2023-10-15T09:33:41.243Z,101046.84
2023-10-15T09:36:08.319Z,101051.78
2023-10-15T09:38:38.296Z,101051.97
2023-10-15T09:41:06.958Z,101063.91
2023-10-15T09:43:37.392Z,101050.00
2023-10-15T09:46:05.026Z,101052.44
2023-10-15T09:48:35.010Z,101050.19
2023-10-15T09:51:01.369Z,101047.31
2023-10-15T09:53:30.625Z,101048.59
2023-10-15T09:56:00.373Z,101050.78
2023-10-15T09:58:27.219Z,101053.00
2023-10-15T10:01:10.183Z,101050.50
2023-10-15T10:03:38.817Z,101040.38
2023-10-15T10:06:13.711Z,101054.38
2023-10-15T10:09:06.061Z,101046.56
2023-10-15T10:12:04.589Z,101044.75
2023-10-15T10:14:57.143Z,101057.78
2023-10-15T10:17:24.077Z,101051.19
2023-10-15T10:19:54.064Z,101063.25
2023-10-15T10:22:27.951Z,101053.91
2023-10-15T10:24:55.158Z,101055.72
2023-10-15T10:27:21.554Z,101057.72
2023-10-15T10:29:54.755Z,101048.13
2023-10-15T10:32:24.133Z,101056.97
2023-10-15T10:35:19.727Z,101059.25
2023-10-15T10:38:11.817Z,101063.44
2023-10-15T10:40:49.273Z,101071.22
2023-10-15T10:43:20.421Z,101075.41
2023-10-15T10:45:53.590Z,101074.97
2023-10-15T10:48:27.067Z,101080.06
2023-10-15T10:51:08.851Z,101079.63
2023-10-15T10:53:35.761Z,101072.31
2023-10-15T10:56:04.932Z,101067.78
2023-10-15T10:58:31.480Z,101077.63
2023-10-15T11:00:58.455Z,101067.00
2023-10-15T11:03:24.849Z,101080.69
2023-10-15T11:05:53.325Z,101083.44
2023-10-15T11:08:20.391Z,101082.13
2023-10-15T11:10:46.965Z,101075.06
2023-10-15T11:13:13.721Z,101086.22
2023-10-15T11:15:40.140Z,101077.09
2023-10-15T11:18:10.018Z,101077.44
2023-10-15T11:20:37.167Z,101078.72
2023-10-15T11:23:07.118Z,101082.69
2023-10-15T11:25:35.900Z,101090.38
2023-10-15T11:28:05.377Z,101078.75
2023-10-15T11:30:32.830Z,101081.81
2023-10-15T11:33:00.891Z,101084.56
2023-10-15T11:35:33.866Z,101086.19
2023-10-15T11:38:08.789Z,101090.41
2023-10-15T11:40:39.770Z,101087.88
2023-10-15T11:43:16.340Z,101090.66
2023-10-15T11:45:42.979Z,101098.16
2023-10-15T11:48:15.480Z,101122.03
2023-10-15T11:50:42.994Z,101129.50
2023-10-15T11:53:21.357Z,101132.16
2023-10-15T11:55:48.800Z,101124.84
2023-10-15T11:58:17.663Z,101121.91
2023-10-15T12:00:49.114Z,101121.63
2023-10-15T12:03:19.838Z,101125.00
2023-10-15T12:05:46.427Z,101125.75
2023-10-15T12:08:17.789Z,101127.09
2023-10-15T12:10:44.324Z,101113.72
2023-10-15T12:13:12.776Z,101123.28
2023-10-15T12:15:39.499Z,101118.41
2023-10-15T12:18:06.049Z,101122.56
2023-10-15T12:20:32.503Z,101118.34
2023-10-15T12:22:58.983Z,101113.34
2023-10-15T12:25:25.605Z,101120.59
2023-10-15T12:27:52.380Z,101121.97
2023-10-15T12:30:25.029Z,101118.81
2023-10-15T12:32:52.679Z,101124.78
2023-10-15T12:35:20.651Z,101126.88
2023-10-15T12:37:48.196Z,101131.75
2023-10-15T12:40:22.540Z,101127.31
2023-10-15T12:42:49.219Z,101120.28
2023-10-15T12:45:15.633Z,101122.66
2023-10-15T12:47:42.117Z,101124.41
2023-10-15T12:50:18.093Z,101126.16
2023-10-15T12:52:48.296Z,101130.16
2023-10-15T12:55:21.189Z,101130.47
2023-10-15T12:57:48.413Z,101125.28
2023-10-15T13:00:22.510Z,101124.75
2023-10-15T13:02:50.970Z,101117.00
2023-10-15T13:05:26.716Z,101125.53
2023-10-15T13:07:54.928Z,101144.19
2023-10-15T13:10:22.079Z,101156.91
2023-10-15T13:12:49.796Z,101149.47
2023-10-15T13:15:18.527Z,101163.59
2023-10-15T13:17:46.040Z,101157.00
2023-10-15T13:20:12.939Z,101157.38
2023-10-15T13:22:39.614Z,101158.13
2023-10-15T13:25:07.052Z,101165.78
2023-10-15T13:27:34.864Z,101158.72
2023-10-15T13:30:02.024Z,101175.34
2023-10-15T13:32:28.959Z,101179.56
2023-10-15T13:34:55.382Z,101183.03
2023-10-15T13:37:22.120Z,101192.47
2023-10-15T13:39:51.051Z,101199.25
2023-10-15T13:42:17.737Z,101202.00
2023-10-15T13:44:44.088Z,101201.63
2023-10-15T13:47:11.468Z,101205.78
2023-10-15T13:49:38.390Z,101212.97
2023-10-15T13:52:07.983Z,101209.06
2023-10-15T13:54:34.867Z,101224.94
2023-10-15T13:57:01.281Z,101219.03
2023-10-15T13:59:27.950Z,101228.94
2023-10-15T14:01:58.960Z,101232.13
2023-10-15T14:04:25.735Z,101236.69
2023-10-15T14:06:53.356Z,101244.13
2023-10-15T14:09:19.771Z,101244.97
2023-10-15T14:11:46.122Z,101245.53
2023-10-15T14:14:12.526Z,101249.31
2023-10-15T14:16:40.115Z,101261.84
2023-10-15T14:19:06.601Z,101249.63
2023-10-15T14:21:33.116Z,101261.94
2023-10-15T14:23:59.504Z,101262.06
2023-10-15T14:26:25.884Z,101248.13
2023-10-15T14:28:55.194Z,101263.47
2023-10-15T14:31:22.973Z,101264.06
2023-10-15T14:33:49.367Z,101272.22
2023-10-15T14:36:15.983Z,101263.72
2023-10-15T14:38:42.394Z,101273.16
2023-10-15T14:41:09.402Z,101277.09
2023-10-15T14:43:37.960Z,101276.34
2023-10-15T14:46:05.683Z,101282.13
2023-10-15T14:48:32.049Z,101289.31
2023-10-15T14:51:01.575Z,101290.97
2023-10-15T14:53:30.823Z,101288.63
2023-10-15T14:55:57.256Z,101293.03
2023-10-15T14:58:23.621Z,101293.53
2023-10-15T15:00:49.999Z,101295.53
2023-10-15T15:03:22.795Z,101306.09
2023-10-15T15:05:49.593Z,101300.34
2023-10-15T15:08:16.082Z,101298.06
2023-10-15T15:10:42.563Z,101292.97
2023-10-15T15:13:09.358Z,101298.94
2023-10-15T15:15:35.793Z,101289.72
2023-10-15T15:18:02.262Z,101288.56
2023-10-15T15:20:29.296Z,101286.88
2023-10-15T15:22:55.986Z,101286.13
2023-10-15T15:25:24.007Z,101290.13
2023-10-15T15:27:50.361Z,101293.84
2023-10-15T15:30:19.165Z,101290.03
2023-10-15T15:32:47.433Z,101300.34
2023-10-15T15:35:14.051Z,101288.69
2023-10-15T15:37:41.347Z,101294.16
2023-10-15T15:40:08.672Z,101303.25
2023-10-15T15:42:35.352Z,101309.75
2023-10-15T15:45:02.334Z,101308.13
2023-10-15T15:47:29.023Z,101302.63
2023-10-15T15:49:55.542Z,101317.34
2023-10-15T15:52:21.998Z,101323.28
2023-10-15T15:54:48.387Z,101310.66
2023-10-15T15:57:14.821Z,101314.38
2023-10-15T15:59:41.337Z,101327.81
2023-10-15T16:02:08.145Z,101326.84
2023-10-15T16:04:34.787Z,101335.28
2023-10-15T16:07:01.487Z,101336.59
2023-10-15T16:09:27.978Z,101352.34
2023-10-15T16:11:55.548Z,101348.09
2023-10-15T16:14:21.994Z,101351.19
2023-10-15T16:16:48.484Z,101370.19
2023-10-15T16:19:15.393Z,101371.06
2023-10-15T16:21:41.724Z,101369.75
2023-10-15T16:24:08.968Z,101381.28
2023-10-15T16:26:36.198Z,101378.88
2023-10-15T16:29:02.588Z,101378.38
2023-10-15T16:31:29.321Z,101383.25
2023-10-15T16:33:55.787Z,101390.66
2023-10-15T16:36:22.162Z,101384.19
2023-10-15T16:38:48.574Z,101390.56
2023-10-15T16:41:16.843Z,101402.06
2023-10-15T16:43:43.292Z,101397.75
2023-10-15T16:46:10.047Z,101404.06
2023-10-15T16:48:36.534Z,101404.22
2023-10-15T16:51:13.767Z,101399.06
2023-10-15T16:53:44.970Z,101405.41
2023-10-15T16:56:11.481Z,101392.84
2023-10-15T16:58:40.287Z,101402.88
2023-10-15T17:01:06.896Z,101409.78
2023-10-15T17:03:33.281Z,101408.16
2023-10-15T17:05:59.660Z,101417.25
2023-10-15T17:08:25.996Z,101424.75
2023-10-15T17:10:52.906Z,101410.97
2023-10-15T17:13:19.462Z,101416.56
2023-10-15T17:15:45.823Z,101422.00
2023-10-15T17:18:12.246Z,101428.97
2023-10-15T17:20:38.694Z,101434.19
2023-10-15T17:23:06.098Z,101436.41
2023-10-15T17:25:32.805Z,101434.97
2023-10-15T17:27:59.178Z,101439.19
2023-10-15T17:30:25.633Z,101442.28
2023-10-15T17:32:52.322Z,101448.22
2023-10-15T17:35:18.766Z,101447.81
2023-10-15T17:37:45.252Z,101457.44
2023-10-15T17:40:12.226Z,101446.63
2023-10-15T17:42:42.092Z,101452.50
2023-10-15T17:45:09.029Z,101455.84
2023-10-15T17:47:35.717Z,101453.25
2023-10-15T17:50:02.389Z,101449.63
2023-10-15T17:52:28.804Z,101448.53
2023-10-15T17:54:55.215Z,101452.72
2023-10-15T17:57:21.623Z,101467.69
2023-10-15T17:59:48.269Z,101467.19
2023-10-15T18:02:14.600Z,101474.88
2023-10-15T18:04:41.049Z,101466.63
2023-10-15T18:07:07.460Z,101461.84
2023-10-15T18:09:35.153Z,101464.72
2023-10-15T18:12:02.006Z,101458.84
2023-10-15T18:14:28.725Z,101448.78
2023-10-15T18:16:55.155Z,101441.88
2023-10-15T18:19:21.548Z,101452.72
2023-10-15T18:21:48.508Z,101457.63
2023-10-15T18:24:15.330Z,101463.69
2023-10-15T18:26:41.964Z,101467.06
2023-10-15T18:29:08.356Z,101470.00
2023-10-15T18:31:36.006Z,101480.03
2023-10-15T18:34:02.358Z,101479.66
2023-10-15T18:36:28.914Z,101479.16
2023-10-15T18:38:56.983Z,101484.19
2023-10-15T18:41:23.391Z,101487.94
2023-10-15T18:43:50.290Z,101497.03
2023-10-15T18:46:17.098Z,101485.97
2023-10-15T18:48:43.565Z,101500.28
2023-10-15T18:51:34.609Z,101495.84
2023-10-15T18:53:58.700Z,101502.59
2023-10-15T18:56:25.308Z,101498.34
2023-10-15T18:58:52.784Z,101505.66
2023-10-15T19:01:22.639Z,101503.81
2023-10-15T19:03:49.675Z,101495.03
2023-10-15T19:06:16.288Z,101485.88
2023-10-15T19:08:42.794Z,101483.09
2023-10-15T19:11:14.453Z,101489.66
2023-10-15T19:13:41.699Z,101498.44
2023-10-15T19:16:08.261Z,101489.72
2023-10-15T19:18:34.791Z,101502.81
2023-10-15T19:21:01.479Z,101495.66
2023-10-15T19:23:27.923Z,101500.03
2023-10-15T19:26:04.281Z,101507.44
2023-10-15T19:28:30.716Z,101506.22
2023-10-15T19:30:57.098Z,101510.91
2023-10-15T19:33:24.202Z,101505.13
2023-10-15T19:35:50.852Z,101504.03
2023-10-15T19:38:17.621Z,101511.00
2023-10-15T19:40:43.974Z,101511.31
2023-10-15T19:43:10.331Z,101518.59
2023-10-15T19:45:36.740Z,101516.00
2023-10-15T19:48:06.200Z,101524.03
2023-10-15T19:50:32.828Z,101530.59
2023-10-15T19:53:04.447Z,101532.22
2023-10-15T19:55:32.148Z,101530.41
2023-10-15T19:57:59.927Z,101536.25
2023-10-15T20:00:29.425Z,101541.25
2023-10-15T20:02:56.541Z,101543.22
2023-10-15T20:05:23.154Z,101547.25
2023-10-15T20:07:49.655Z,101535.50
2023-10-15T20:10:16.453Z,101529.06
2023-10-15T20:12:47.603Z,101537.19
2023-10-15T20:15:18.554Z,101539.19
2023-10-15T20:17:45.780Z,101536.09
2023-10-15T20:20:13.877Z,101537.97
2023-10-15T20:22:41.411Z,101540.44
2023-10-15T20:25:12.957Z,101541.66
2023-10-15T20:27:41.042Z,101543.84
2023-10-15T20:30:11.957Z,101538.81
2023-10-15T20:32:54.125Z,101534.59
2023-10-15T20:35:21.865Z,101539.94
2023-10-15T20:37:49.201Z,101533.34
2023-10-15T20:40:15.650Z,101526.56
2023-10-15T20:42:46.791Z,101529.75
2023-10-15T20:45:17.805Z,101530.16
2023-10-15T20:47:45.418Z,101529.75
2023-10-15T20:50:15.585Z,101534.00
2023-10-15T20:52:46.077Z,101533.75
2023-10-15T20:55:13.587Z,101531.34
2023-10-15T20:57:41.226Z,101530.84
2023-10-15T21:00:13.037Z,101533.47
2023-10-15T21:02:43.683Z,101535.25
2023-10-15T21:05:11.556Z,101538.00
2023-10-15T21:07:40.035Z,101545.00
2023-10-15T21:10:07.614Z,101544.84
2023-10-15T21:12:35.022Z,101544.94
2023-10-15T21:15:01.457Z,101539.22
2023-10-15T21:17:27.844Z,101542.72
2023-10-15T21:19:57.134Z,101544.59
2023-10-15T21:22:23.673Z,101547.28
2023-10-15T21:24:50.097Z,101535.22
2023-10-15T21:27:16.514Z,101544.94
2023-10-15T21:29:43.756Z,101543.28
2023-10-15T21:32:10.138Z,101540.53
2023-10-15T21:34:36.560Z,101544.41
2023-10-15T21:37:03.225Z,101536.09
2023-10-15T21:39:29.614Z,101545.00
2023-10-15T21:41:56.003Z,101539.53
2023-10-15T21:44:22.395Z,101541.13
2023-10-15T21:46:48.834Z,101547.28
2023-10-15T21:49:15.754Z,101552.41
2023-10-15T21:51:42.700Z,101555.16
2023-10-15T21:54:10.853Z,101541.69
2023-10-15T21:56:39.538Z,101553.13
2023-10-15T21:59:06.114Z,101553.56
2023-10-15T22:01:33.048Z,101551.41
2023-10-15T22:03:59.618Z,101547.03
2023-10-15T22:06:26.023Z,101538.78
2023-10-15T22:08:52.987Z,101544.81
2023-10-15T22:11:20.820Z,101540.91
2023-10-15T22:13:48.201Z,101545.06
2023-10-15T22:16:14.676Z,101543.88
2023-10-15T22:18:41.306Z,101544.47
2023-10-15T22:21:09.143Z,101538.78
2023-10-15T22:23:37.931Z,101545.56
2023-10-15T22:26:05.819Z,101544.69
2023-10-15T22:28:32.414Z,101545.94
2023-10-15T22:30:58.854Z,101544.41
2023-10-15T22:33:29.479Z,101550.16
2023-10-15T22:35:55.957Z,101542.59
2023-10-15T22:38:22.290Z,101542.03
2023-10-15T22:40:51.690Z,101545.56
2023-10-15T22:43:21.707Z,101547.28
2023-10-15T22:45:48.427Z,101543.03
2023-10-15T22:48:16.951Z,101543.56
2023-10-15T22:50:43.962Z,101546.72
2023-10-15T22:53:12.545Z,101549.69
2023-10-15T22:55:41.445Z,101548.28
2023-10-15T22:58:07.969Z,101546.00
2023-10-15T23:00:40.399Z,101549.25
2023-10-15T23:03:07.691Z,101541.97
2023-10-15T23:05:35.351Z,101541.66
2023-10-15T23:08:02.582Z,101552.22
2023-10-15T23:10:31.920Z,101538.38
2023-10-15T23:12:58.302Z,101550.66
2023-10-15T23:15:30.287Z,101551.63
2023-10-15T23:17:59.785Z,101546.84
2023-10-15T23:20:35.659Z,101557.38
2023-10-15T23:23:06.666Z,101550.56
2023-10-15T23:25:35.523Z,101547.72
2023-10-15T23:28:14.085Z,101553.38
2023-10-15T23:30:49.270Z,101543.91
2023-10-15T23:33:16.918Z,101552.25
2023-10-15T23:35:46.739Z,101554.13
2023-10-15T23:38:13.535Z,101559.31
2023-10-15T23:40:39.865Z,101559.09
2023-10-15T23:43:06.188Z,101552.09
2023-10-15T23:45:33.027Z,101558.94
2023-10-15T23:48:15.068Z,101560.59
2023-10-15T23:50:47.497Z,101563.25
2023-10-15T23:53:20.908Z,101555.94
2023-10-15T23:55:48.064Z,101550.59
2023-10-15T23:58:14.430Z,101549.78
